createdAt,value
2023-01-10T00:01:38.938Z,101054.64
2023-01-10T00:04:08.939Z,101061.66
2023-01-10T00:06:38.480Z,101065.31
2023-01-10T00:09:05.914Z,101066.89
2023-01-10T00:11:51.751Z,101071.22
2023-01-10T00:14:19.023Z,101075.39
2023-01-10T00:16:46.035Z,101072.99
2023-01-10T00:19:13.164Z,101075.09
2023-01-10T00:21:43.637Z,101072.73
2023-01-10T00:24:19.962Z,101078.14
2023-01-10T00:26:50.653Z,101079.77
2023-01-10T00:29:19.014Z,101085.73
2023-01-10T00:31:47.872Z,101086.98
2023-01-10T00:34:15.175Z,101088.92
2023-01-10T00:36:42.217Z,101095.52
2023-01-10T00:39:10.764Z,101092.54
2023-01-10T00:41:57.246Z,101091.83
2023-01-10T00:44:25.520Z,101090.66
2023-01-10T00:46:53.276Z,101085.73
2023-01-10T00:49:20.227Z,101080.38
2023-01-10T00:51:49.141Z,101082.32
2023-01-10T00:54:18.577Z,101077.48
2023-01-10T00:56:46.142Z,101077.85
2023-01-10T00:59:13.118Z,101076.83
2023-01-10T01:01:40.295Z,101074.09
2023-01-10T01:10:39.281Z,101070.00
2023-01-10T01:13:16.757Z,101067.39
2023-01-10T01:15:43.866Z,101072.77
2023-01-10T01:18:16.149Z,101070.93
2023-01-10T01:20:45.320Z,101075.61
2023-01-10T01:23:13.012Z,101075.61
2023-01-10T01:25:40.291Z,101074.36
2023-01-10T01:28:07.819Z,101077.48
2023-01-10T01:30:35.815Z,101082.48
2023-01-10T01:33:03.744Z,101079.96
2023-01-10T01:35:33.126Z,101072.14
2023-01-10T01:38:00.751Z,101074.98
2023-01-10T01:40:29.173Z,101070.98
2023-01-10T01:42:56.164Z,101070.30
2023-01-10T01:45:24.527Z,101079.80
2023-01-10T01:48:03.616Z,101079.98
2023-01-10T01:50:33.683Z,101084.48
2023-01-10T01:53:02.579Z,101087.73
2023-01-10T01:55:30.530Z,101090.63
2023-01-10T01:57:58.151Z,101091.93
2023-01-10T02:00:25.022Z,101093.86
2023-01-10T02:03:02.640Z,101099.96
2023-01-10T02:05:32.028Z,101099.98
2023-01-10T02:07:59.199Z,101106.73
2023-01-10T02:10:48.401Z,101108.85
2023-01-10T02:13:15.965Z,101117.29
2023-01-10T02:15:43.074Z,101119.64
2023-01-10T02:18:10.212Z,101117.98
2023-01-10T02:21:06.127Z,101120.63
2023-01-10T02:24:00.309Z,101120.36
2023-01-10T02:26:48.669Z,101122.12
2023-01-10T02:29:54.904Z,101114.27
2023-01-10T02:32:40.658Z,101102.45
2023-01-10T02:35:47.270Z,101097.57
2023-01-10T02:38:32.369Z,101095.68
2023-01-10T02:41:11.458Z,101091.83
2023-01-10T02:43:46.555Z,101090.71
2023-01-10T02:46:24.505Z,101094.56
2023-01-10T02:48:52.669Z,101091.16
2023-01-10T02:51:22.399Z,101086.36
2023-01-10T02:54:02.448Z,101079.49
2023-01-10T02:56:55.858Z,101082.69
2023-01-10T02:59:46.918Z,101084.52
2023-01-10T03:02:30.275Z,101083.07
2023-01-10T03:05:27.940Z,101084.86
2023-01-10T03:08:13.686Z,101091.48
2023-01-10T03:10:50.104Z,101090.48
2023-01-10T03:13:33.384Z,101093.59
2023-01-10T03:16:01.189Z,101090.85
2023-01-10T03:18:42.200Z,101092.70
2023-01-10T03:21:09.182Z,101082.92
2023-01-10T03:23:37.441Z,101080.60
2023-01-10T03:26:04.871Z,101081.81
2023-01-10T03:29:01.614Z,101075.45
2023-01-10T03:31:44.755Z,101080.23
2023-01-10T03:34:11.757Z,101080.01
2023-01-10T03:36:47.553Z,101090.15
2023-01-10T03:39:17.332Z,101097.52
2023-01-10T03:41:48.388Z,101094.46
2023-01-10T03:44:37.118Z,101095.39
2023-01-10T03:47:38.499Z,101093.48
2023-01-10T03:50:10.435Z,101099.59
2023-01-10T03:52:39.021Z,101102.36
2023-01-10T03:55:07.240Z,101102.89
2023-01-10T03:57:34.526Z,101100.32
2023-01-10T04:00:01.574Z,101101.55
2023-01-10T04:02:32.210Z,101102.39
2023-01-10T04:04:59.156Z,101098.09
2023-01-10T04:07:26.612Z,101097.01
2023-01-10T04:09:53.770Z,101099.73
2023-01-10T04:12:20.882Z,101094.19
2023-01-10T04:14:48.723Z,101101.39
2023-01-10T04:17:16.356Z,101107.65
2023-01-10T04:19:43.561Z,101112.25
2023-01-10T04:22:10.822Z,101117.16
2023-01-10T04:27:26.873Z,101124.05
2023-01-10T04:29:54.024Z,101125.59
2023-01-10T04:32:21.272Z,101122.86
2023-01-10T04:34:48.372Z,101118.58
2023-01-10T04:37:15.647Z,101122.59
2023-01-10T04:39:42.787Z,101124.16
2023-01-10T04:59:03.662Z,101130.54
2023-01-10T05:01:30.973Z,101136.05
2023-01-10T05:03:58.173Z,101138.02
2023-01-10T05:06:25.490Z,101134.08
2023-01-10T05:08:52.730Z,101128.73
2023-01-10T05:11:22.735Z,101127.86
2023-01-10T05:13:49.893Z,101128.90
2023-01-10T05:16:26.999Z,101132.17
2023-01-10T05:19:09.254Z,101143.05
2023-01-10T05:21:36.288Z,101142.52
2023-01-10T05:24:03.373Z,101144.39
2023-01-10T05:26:30.545Z,101139.55
2023-01-10T05:29:09.838Z,101132.98
2023-01-10T05:31:37.088Z,101133.14
2023-01-10T05:50:57.898Z,101140.13
2023-01-10T05:53:25.068Z,101146.70
2023-01-10T06:02:34.523Z,101150.91
2023-01-10T06:05:01.664Z,101157.32
2023-01-10T06:07:29.018Z,101158.40
2023-01-10T06:09:56.204Z,101164.12
2023-01-10T06:12:23.349Z,101167.63
2023-01-10T06:14:50.697Z,101169.04
2023-01-10T06:17:17.768Z,101167.16
2023-01-10T06:19:44.903Z,101177.15
2023-01-10T06:22:29.843Z,101177.48
2023-01-10T06:24:57.345Z,101181.27
2023-01-10T06:27:24.667Z,101186.23
2023-01-10T06:29:52.604Z,101190.08
2023-01-10T06:32:19.663Z,101188.40
2023-01-10T06:34:46.719Z,101178.55
2023-01-10T06:37:13.840Z,101173.43
2023-01-10T06:39:40.947Z,101177.52
2023-01-10T06:42:07.838Z,101178.14
2023-01-10T06:44:35.724Z,101181.36
2023-01-10T06:47:04.449Z,101179.02
2023-01-10T06:49:32.161Z,101178.05
2023-01-10T06:51:59.197Z,101178.59
2023-01-10T06:54:26.153Z,101186.56
2023-01-10T06:56:53.851Z,101177.77
2023-01-10T06:59:21.284Z,101178.80
2023-01-10T07:01:48.812Z,101170.48
2023-01-10T07:04:18.030Z,101174.08
2023-01-10T07:06:45.407Z,101175.64
2023-01-10T07:09:13.580Z,101172.53
2023-01-10T07:17:57.976Z,101168.55
2023-01-10T07:20:25.435Z,101171.55
2023-01-10T07:22:58.596Z,101165.50
2023-01-10T07:25:26.176Z,101168.66
2023-01-10T07:27:55.566Z,101178.00
2023-01-10T07:30:25.226Z,101183.17
2023-01-10T07:32:56.647Z,101191.12
2023-01-10T07:35:25.391Z,101190.05
2023-01-10T07:37:52.465Z,101191.21
2023-01-10T07:40:19.657Z,101190.13
2023-01-10T07:42:46.647Z,101190.66
2023-01-10T07:45:13.755Z,101183.27
2023-01-10T07:47:40.875Z,101184.48
2023-01-10T07:50:08.465Z,101177.39
2023-01-10T07:52:35.604Z,101169.42
2023-01-10T07:55:02.601Z,101182.58
2023-01-10T07:57:29.694Z,101188.96
2023-01-10T07:59:56.787Z,101195.85
2023-01-10T08:02:23.900Z,101196.35
2023-01-10T08:04:51.215Z,101194.56
2023-01-10T08:07:18.973Z,101186.35
2023-01-10T08:09:45.892Z,101183.67
2023-01-10T08:12:12.880Z,101191.48
2023-01-10T08:14:40.463Z,101189.39
2023-01-10T08:17:07.739Z,101194.28
2023-01-10T08:19:34.773Z,101196.77
2023-01-10T08:22:03.300Z,101194.89
2023-01-10T08:24:30.274Z,101195.80
2023-01-10T08:27:00.514Z,101192.45
2023-01-10T08:29:27.702Z,101197.80
2023-01-10T08:31:54.668Z,101201.19
2023-01-10T08:34:21.703Z,101204.96
2023-01-10T08:36:52.760Z,101203.58
2023-01-10T08:39:22.583Z,101204.73
2023-01-10T08:41:49.624Z,101203.65
2023-01-10T08:44:16.709Z,101202.60
2023-01-10T08:46:43.816Z,101205.31
2023-01-10T08:49:10.898Z,101207.71
2023-01-10T08:51:37.903Z,101210.84
2023-01-10T08:54:05.114Z,101210.14
2023-01-10T08:56:32.249Z,101199.40
2023-01-10T08:58:59.302Z,101195.23
2023-01-10T09:01:26.330Z,101197.69
2023-01-10T09:03:53.357Z,101199.76
2023-01-10T09:06:20.426Z,101198.52
2023-01-10T09:08:47.449Z,101200.18
2023-01-10T09:11:14.400Z,101195.83
2023-01-10T09:13:42.459Z,101198.59
2023-01-10T09:16:09.828Z,101196.66
2023-01-10T09:18:36.934Z,101192.78
2023-01-10T09:21:04.096Z,101193.73
2023-01-10T09:23:31.114Z,101196.24
2023-01-10T09:25:58.222Z,101197.54
2023-01-10T09:28:25.291Z,101192.28
2023-01-10T09:30:52.422Z,101188.73
2023-01-10T09:33:19.490Z,101187.96
2023-01-10T09:35:46.509Z,101184.28
2023-01-10T09:38:16.450Z,101185.92
2023-01-10T09:41:07.638Z,101191.80
2023-01-10T09:43:59.246Z,101190.70
2023-01-10T09:46:39.452Z,101189.48
2023-01-10T09:49:12.126Z,101190.38
2023-01-10T09:51:48.827Z,101189.55
2023-01-10T09:54:23.721Z,101190.21
2023-01-10T09:56:50.698Z,101188.23
2023-01-10T09:59:19.969Z,101188.39
2023-01-10T10:01:48.159Z,101186.48
2023-01-10T10:04:35.809Z,101183.71
2023-01-10T10:07:04.399Z,101179.84
2023-01-10T10:09:34.845Z,101178.20
2023-01-10T10:12:09.076Z,101178.29
2023-01-10T10:14:53.532Z,101170.66
2023-01-10T10:17:42.516Z,101166.33
2023-01-10T10:20:28.622Z,101168.35
2023-01-10T10:22:55.638Z,101161.73
2023-01-10T10:25:32.002Z,101158.63
2023-01-10T10:28:33.464Z,101158.66
2023-01-10T10:31:04.533Z,101159.39
2023-01-10T10:33:53.134Z,101164.30
2023-01-10T10:36:39.834Z,101163.42
2023-01-10T10:39:07.000Z,101164.63
2023-01-10T10:41:53.603Z,101163.27
2023-01-10T10:44:36.128Z,101158.46
2023-01-10T10:47:04.179Z,101155.34
2023-01-10T10:49:31.221Z,101157.59
2023-01-10T10:51:58.305Z,101157.02
2023-01-10T10:54:25.417Z,101155.80
2023-01-10T10:56:55.732Z,101155.43
2023-01-10T10:59:22.732Z,101155.52
2023-01-10T11:01:52.223Z,101167.59
2023-01-10T11:04:21.340Z,101166.83
2023-01-10T11:06:51.236Z,101163.61
2023-01-10T11:09:24.508Z,101167.11
2023-01-10T11:11:54.339Z,101169.79
2023-01-10T11:14:42.848Z,101167.84
2023-01-10T11:17:30.292Z,101164.62
2023-01-10T11:20:03.476Z,101167.70
2023-01-10T11:22:33.949Z,101170.79
2023-01-10T11:25:01.613Z,101174.12
2023-01-10T11:27:31.032Z,101170.19
2023-01-10T11:30:08.774Z,101176.05
2023-01-10T11:32:41.305Z,101170.30
2023-01-10T11:35:29.689Z,101172.10
2023-01-10T11:38:02.529Z,101173.92
2023-01-10T11:40:31.574Z,101174.24
2023-01-10T11:43:01.908Z,101169.66
2023-01-10T11:45:32.095Z,101168.73
2023-01-10T11:48:20.274Z,101174.55
2023-01-10T11:50:52.620Z,101172.33
2023-01-10T11:53:39.775Z,101172.58
2023-01-10T11:56:07.568Z,101171.52
2023-01-10T11:58:35.387Z,101168.42
2023-01-10T12:01:02.409Z,101172.90
2023-01-10T12:03:40.283Z,101175.52
2023-01-10T12:06:08.672Z,101175.66
2023-01-10T12:08:36.957Z,101180.52
2023-01-10T12:11:10.524Z,101174.77
2023-01-10T12:13:51.358Z,101170.55
2023-01-10T12:16:25.417Z,101168.75
2023-01-10T12:18:54.466Z,101171.82
2023-01-10T12:21:34.915Z,101172.77
2023-01-10T12:24:06.331Z,101172.34
2023-01-10T12:26:33.933Z,101171.06
2023-01-10T12:29:15.034Z,101171.02
2023-01-10T12:31:42.035Z,101167.70
2023-01-10T12:34:12.623Z,101168.56
2023-01-10T12:36:44.970Z,101174.47
2023-01-10T12:39:33.132Z,101176.91
2023-01-10T12:42:28.150Z,101185.80
2023-01-10T12:45:36.046Z,101192.64
2023-01-10T12:48:04.131Z,101197.23
2023-01-10T12:50:35.285Z,101193.51
2023-01-10T12:53:08.204Z,101194.95
2023-01-10T12:55:41.035Z,101200.73
2023-01-10T12:58:16.871Z,101208.55
2023-01-10T13:00:48.458Z,101200.62
2023-01-10T13:03:22.296Z,101203.69
2023-01-10T13:05:50.103Z,101201.16
2023-01-10T13:08:18.503Z,101210.38
2023-01-10T13:10:46.920Z,101210.37
2023-01-10T13:13:35.374Z,101209.87
2023-01-10T13:16:15.052Z,101213.05
2023-01-10T13:18:58.893Z,101217.80
2023-01-10T13:21:25.995Z,101217.66
2023-01-10T13:23:55.376Z,101221.52
2023-01-10T13:26:22.486Z,101228.17
2023-01-10T13:28:59.305Z,101234.61
2023-01-10T13:31:29.425Z,101237.77
2023-01-10T13:34:18.601Z,101236.71
2023-01-10T13:36:56.675Z,101238.77
2023-01-10T13:39:49.249Z,101237.59
2023-01-10T13:42:56.287Z,101235.36
2023-01-10T13:45:30.317Z,101228.11
2023-01-10T13:48:03.725Z,101232.14
2023-01-10T13:50:42.447Z,101230.06
2023-01-10T13:53:12.552Z,101225.90
2023-01-10T13:55:39.575Z,101227.11
2023-01-10T13:58:09.652Z,101223.77
2023-01-10T14:00:55.508Z,101229.64
2023-01-10T14:03:56.243Z,101233.33
2023-01-10T14:06:29.638Z,101230.58
2023-01-10T14:09:02.035Z,101234.59
2023-01-10T14:11:50.664Z,101236.59
2023-01-10T14:14:22.389Z,101240.16
2023-01-10T14:16:51.675Z,101241.95
2023-01-10T14:19:31.325Z,101230.35
2023-01-10T14:21:59.756Z,101216.48
2023-01-10T14:24:43.915Z,101215.59
2023-01-10T14:27:15.853Z,101219.06
2023-01-10T14:30:01.064Z,101220.84
2023-01-10T14:32:35.630Z,101231.27
2023-01-10T14:35:03.840Z,101233.58
2023-01-10T14:37:37.634Z,101235.20
2023-01-10T14:40:07.185Z,101227.60
2023-01-10T14:42:35.155Z,101209.42
2023-01-10T14:45:20.963Z,101212.02
2023-01-10T14:47:49.707Z,101228.11
2023-01-10T14:50:34.681Z,101238.17
2023-01-10T14:53:01.773Z,101243.73
2023-01-10T14:55:28.859Z,101252.23
2023-01-10T14:57:57.267Z,101261.64
2023-01-10T15:00:30.057Z,101266.67
2023-01-10T15:02:59.173Z,101275.33
2023-01-10T15:05:27.815Z,101273.90
2023-01-10T15:07:55.743Z,101267.94
2023-01-10T15:10:43.511Z,101266.64
2023-01-10T15:13:13.924Z,101263.47
2023-01-10T15:15:40.984Z,101275.26
2023-01-10T15:18:33.424Z,101278.76
2023-01-10T15:21:00.558Z,101273.70
2023-01-10T15:23:40.905Z,101281.66
2023-01-10T15:26:14.517Z,101281.41
2023-01-10T15:28:41.709Z,101278.54
2023-01-10T15:31:11.051Z,101275.54
2023-01-10T15:33:38.983Z,101270.30
2023-01-10T15:36:12.901Z,101271.15
2023-01-10T15:38:45.883Z,101271.85
2023-01-10T15:41:17.783Z,101272.17
2023-01-10T15:43:45.196Z,101264.89
2023-01-10T15:46:23.032Z,101258.97
2023-01-10T15:49:01.866Z,101265.22
2023-01-10T15:51:30.991Z,101259.21
2023-01-10T15:54:04.581Z,101256.98
2023-01-10T15:56:40.037Z,101250.17
2023-01-10T15:59:33.034Z,101244.30
2023-01-10T16:02:22.325Z,101246.84
2023-01-10T16:04:51.268Z,101253.34
2023-01-10T16:07:33.070Z,101253.80
2023-01-10T16:10:18.723Z,101273.52
2023-01-10T16:13:06.115Z,101277.96
2023-01-10T16:15:38.377Z,101279.41
2023-01-10T16:18:05.641Z,101276.34
2023-01-10T16:20:38.789Z,101280.16
2023-01-10T16:23:08.900Z,101279.98
2023-01-10T16:25:39.008Z,101266.16
2023-01-10T16:28:09.585Z,101262.57
2023-01-10T16:30:40.578Z,101268.52
2023-01-10T16:33:24.478Z,101283.01
2023-01-10T16:35:56.255Z,101278.69
2023-01-10T16:38:23.521Z,101272.66
2023-01-10T16:40:55.373Z,101267.50
2023-01-10T16:46:53.090Z,101272.60
2023-01-10T16:49:20.815Z,101280.69
2023-01-10T16:51:49.033Z,101280.20
2023-01-10T16:54:19.088Z,101270.94
2023-01-10T16:56:47.598Z,101281.34
2023-01-10T16:59:20.414Z,101278.13
2023-01-10T17:01:52.605Z,101277.60
2023-01-10T17:04:23.024Z,101272.61
2023-01-10T17:06:51.424Z,101272.88
2023-01-10T17:09:24.221Z,101260.02
2023-01-10T17:11:56.319Z,101268.77
2023-01-10T17:14:23.858Z,101284.90
2023-01-10T17:17:29.321Z,101294.30
2023-01-10T17:20:00.579Z,101293.80
2023-01-10T17:22:28.080Z,101285.36
2023-01-10T17:24:56.378Z,101288.20
2023-01-10T17:27:28.474Z,101287.18
2023-01-10T17:29:56.183Z,101287.89
2023-01-10T17:32:23.603Z,101291.16
2023-01-10T17:34:51.943Z,101295.83
2023-01-10T17:37:19.608Z,101302.59
2023-01-10T17:39:48.850Z,101297.39
2023-01-10T17:42:21.207Z,101291.66
2023-01-10T17:44:49.150Z,101303.30
2023-01-10T17:47:16.737Z,101306.40
2023-01-10T17:49:46.234Z,101307.31
2023-01-10T17:52:15.997Z,101311.70
2023-01-10T17:54:43.926Z,101315.17
2023-01-10T17:57:12.014Z,101311.41
2023-01-10T17:59:41.022Z,101297.64
2023-01-10T18:02:31.231Z,101312.84
2023-01-10T18:04:59.147Z,101321.35
2023-01-10T18:07:26.704Z,101321.53
2023-01-10T18:09:56.888Z,101320.84
2023-01-10T18:12:24.197Z,101333.86
2023-01-10T18:14:53.636Z,101332.35
2023-01-10T18:17:24.258Z,101332.89
2023-01-10T18:19:51.570Z,101336.20
2023-01-10T18:22:39.309Z,101336.37
2023-01-10T18:25:07.191Z,101333.93
2023-01-10T18:27:34.529Z,101331.69
2023-01-10T18:30:02.086Z,101326.56
2023-01-10T18:32:32.157Z,101340.23
2023-01-10T18:35:00.450Z,101337.67
2023-01-10T18:37:30.370Z,101343.13
2023-01-10T18:39:57.950Z,101345.24
2023-01-10T18:42:27.867Z,101347.86
2023-01-10T18:44:59.581Z,101350.44
2023-01-10T18:47:31.383Z,101362.36
2023-01-10T18:50:00.878Z,101362.48
2023-01-10T18:52:29.039Z,101354.17
2023-01-10T18:55:33.659Z,101350.66
2023-01-10T18:58:01.411Z,101356.02
2023-01-10T19:00:29.613Z,101354.70
2023-01-10T19:02:59.027Z,101357.38
2023-01-10T19:05:29.087Z,101364.48
2023-01-10T19:08:01.497Z,101367.77
2023-01-10T19:10:37.406Z,101361.04
2023-01-10T19:13:18.139Z,101367.95
2023-01-10T19:15:47.884Z,101369.70
2023-01-10T19:18:16.656Z,101366.63
2023-01-10T19:20:43.897Z,101361.14
2023-01-10T19:23:13.783Z,101370.18
2023-01-10T19:25:43.000Z,101372.30
2023-01-10T19:28:19.138Z,101374.20
2023-01-10T19:31:03.641Z,101375.39
2023-01-10T19:33:34.884Z,101368.27
2023-01-10T19:36:06.446Z,101379.19
2023-01-10T19:38:36.530Z,101371.73
2023-01-10T19:41:04.798Z,101369.20
2023-01-10T19:43:58.644Z,101383.51
2023-01-10T19:46:27.116Z,101378.66
2023-01-10T19:48:55.615Z,101384.39
2023-01-10T19:51:23.180Z,101380.92
2023-01-10T19:53:50.610Z,101387.32
2023-01-10T19:56:21.704Z,101391.86
2023-01-10T19:58:49.667Z,101392.59
2023-01-10T20:01:20.217Z,101395.57
2023-01-10T20:03:47.662Z,101397.83
2023-01-10T20:06:20.492Z,101394.52
2023-01-10T20:08:47.944Z,101408.20
2023-01-10T20:11:15.788Z,101408.42
2023-01-10T20:13:44.587Z,101405.65
2023-01-10T20:16:13.306Z,101402.73
2023-01-10T20:18:40.865Z,101399.14
2023-01-10T20:21:10.211Z,101400.41
2023-01-10T20:23:38.459Z,101404.40
2023-01-10T20:26:09.152Z,101409.26
2023-01-10T20:28:38.574Z,101399.40
2023-01-10T20:31:07.580Z,101408.41
2023-01-10T20:33:36.375Z,101403.02
2023-01-10T20:36:05.293Z,101411.48
2023-01-10T20:38:34.156Z,101421.15
2023-01-10T20:41:03.683Z,101419.26
2023-01-10T20:43:30.750Z,101415.48
2023-01-10T20:46:07.245Z,101421.73
2023-01-10T20:48:41.342Z,101428.51
2023-01-10T20:51:11.348Z,101429.05
2023-01-10T20:53:41.438Z,101435.63
2023-01-10T20:56:11.825Z,101439.11
2023-01-10T20:58:39.957Z,101436.36
2023-01-10T21:01:28.679Z,101431.71
2023-01-10T21:03:56.215Z,101434.31
2023-01-10T21:06:24.915Z,101434.32
2023-01-10T21:08:53.750Z,101439.16
2023-01-10T21:11:21.139Z,101440.54
2023-01-10T21:13:48.650Z,101437.40
2023-01-10T21:16:18.882Z,101432.05
2023-01-10T21:18:47.555Z,101430.48
2023-01-10T21:21:17.225Z,101435.20
2023-01-10T21:23:44.741Z,101439.73
2023-01-10T21:26:13.539Z,101438.71
2023-01-10T21:28:43.100Z,101436.98
2023-01-10T21:31:13.578Z,101437.67
2023-01-10T21:33:41.357Z,101445.45
2023-01-10T21:36:08.809Z,101445.84
2023-01-10T21:38:35.903Z,101454.88
2023-01-10T21:41:12.710Z,101456.63
2023-01-10T21:43:43.833Z,101464.77
2023-01-10T21:46:11.441Z,101473.61
2023-01-10T21:48:38.545Z,101471.20
2023-01-10T21:51:05.695Z,101478.55
2023-01-10T21:53:32.784Z,101475.91
2023-01-10T21:56:00.809Z,101479.36
2023-01-10T21:58:28.383Z,101476.08
2023-01-10T22:00:56.599Z,101468.99
2023-01-10T22:03:26.765Z,101479.30
2023-01-10T22:05:54.446Z,101490.95
2023-01-10T22:08:23.703Z,101492.19
2023-01-10T22:10:51.110Z,101485.64
2023-01-10T22:13:18.099Z,101498.93
2023-01-10T22:15:45.407Z,101503.42
2023-01-10T22:18:12.517Z,101513.27
2023-01-10T22:20:45.390Z,101513.94
2023-01-10T22:23:12.780Z,101520.48
2023-01-10T22:25:39.900Z,101526.69
2023-01-10T22:28:08.134Z,101532.21
2023-01-10T22:30:35.295Z,101531.22
2023-01-10T22:33:02.676Z,101537.80
2023-01-10T22:35:29.878Z,101532.64
2023-01-10T22:37:58.865Z,101531.07
2023-01-10T22:40:25.953Z,101535.74
2023-01-10T22:42:55.996Z,101537.28
2023-01-10T22:45:23.463Z,101528.81
2023-01-10T22:47:50.563Z,101527.22
2023-01-10T22:50:18.390Z,101530.63
2023-01-10T22:52:48.624Z,101539.75
2023-01-10T22:55:17.031Z,101545.42
2023-01-10T22:57:47.203Z,101550.77
2023-01-10T23:00:15.495Z,101556.81
2023-01-10T23:02:42.833Z,101553.36
2023-01-10T23:05:09.841Z,101551.77
2023-01-10T23:07:38.114Z,101557.12
2023-01-10T23:10:08.430Z,101566.18
2023-01-10T23:12:40.052Z,101570.73
2023-01-10T23:15:10.873Z,101577.33
2023-01-10T23:17:38.146Z,101578.38
2023-01-10T23:20:05.844Z,101574.77
2023-01-10T23:22:33.300Z,101575.45
2023-01-10T23:25:00.495Z,101577.30
2023-01-10T23:27:27.691Z,101575.71
2023-01-10T23:29:54.548Z,101579.30
2023-01-10T23:32:21.589Z,101587.86
2023-01-10T23:34:48.781Z,101592.47
2023-01-10T23:37:15.907Z,101599.14
2023-01-10T23:39:43.341Z,101597.38
2023-01-10T23:42:11.178Z,101593.02
2023-01-10T23:44:38.196Z,101591.63
2023-01-10T23:47:11.134Z,101591.62
2023-01-10T23:49:38.183Z,101586.16
2023-01-10T23:52:05.252Z,101579.63
2023-01-10T23:54:34.624Z,101582.91
2023-01-10T23:57:01.620Z,101580.83
2023-01-10T23:59:28.919Z,101583.52
